sensor_id;sensor_type;location;lat;lon;timestamp;temperature;humidity
67005;HTU21D;53920;51.094;5.902;2023-04-03T00:00:43;2.60;74.64
67005;HTU21D;53920;51.094;5.902;2023-04-03T00:03:09;2.60;74.51
67005;HTU21D;53920;51.094;5.902;2023-04-03T00:05:35;2.59;74.31
67005;HTU21D;53920;51.094;5.902;2023-04-03T00:08:01;2.57;74.32
67005;HTU21D;53920;51.094;5.902;2023-04-03T00:10:36;2.56;74.63
67005;HTU21D;53920;51.094;5.902;2023-04-03T00:13:03;2.55;74.53
67005;HTU21D;53920;51.094;5.902;2023-04-03T00:15:32;2.54;74.59
67005;HTU21D;53920;51.094;5.902;2023-04-03T00:17:59;2.53;74.56
67005;HTU21D;53920;51.094;5.902;2023-04-03T00:20:25;2.54;74.51
67005;HTU21D;53920;51.094;5.902;2023-04-03T00:22:51;2.53;74.37
67005;HTU21D;53920;51.094;5.902;2023-04-03T00:25:18;2.50;74.27
67005;HTU21D;53920;51.094;5.902;2023-04-03T00:27:44;2.43;74.20
67005;HTU21D;53920;51.094;5.902;2023-04-03T00:30:13;2.38;74.25
67005;HTU21D;53920;51.094;5.902;2023-04-03T00:32:41;2.36;74.31
67005;HTU21D;53920;51.094;5.902;2023-04-03T00:35:08;2.34;74.31
67005;HTU21D;53920;51.094;5.902;2023-04-03T00:37:34;2.32;74.32
67005;HTU21D;53920;51.094;5.902;2023-04-03T00:40:01;2.30;74.39
67005;HTU21D;53920;51.094;5.902;2023-04-03T00:42:27;2.31;74.46
67005;HTU21D;53920;51.094;5.902;2023-04-03T00:47:25;2.25;74.15
67005;HTU21D;53920;51.094;5.902;2023-04-03T00:49:52;2.20;74.20
67005;HTU21D;53920;51.094;5.902;2023-04-03T00:52:23;2.12;74.30
67005;HTU21D;53920;51.094;5.902;2023-04-03T00:54:55;2.08;74.43
67005;HTU21D;53920;51.094;5.902;2023-04-03T00:57:23;2.06;74.57
67005;HTU21D;53920;51.094;5.902;2023-04-03T00:59:55;2.05;74.64
67005;HTU21D;53920;51.094;5.902;2023-04-03T01:02:22;2.05;74.70
67005;HTU21D;53920;51.094;5.902;2023-04-03T01:04:49;2.05;74.61
67005;HTU21D;53920;51.094;5.902;2023-04-03T01:07:19;2.02;74.67
67005;HTU21D;53920;51.094;5.902;2023-04-03T01:09:48;2.01;74.99
67005;HTU21D;53920;51.094;5.902;2023-04-03T01:12:22;2.01;75.12
67005;HTU21D;53920;51.094;5.902;2023-04-03T01:14:53;2.02;75.30
67005;HTU21D;53920;51.094;5.902;2023-04-03T01:17:37;2.00;75.17
67005;HTU21D;53920;51.094;5.902;2023-04-03T01:25:33;1.98;75.85
67005;HTU21D;53920;51.094;5.902;2023-04-03T01:28:00;1.98;76.10
67005;HTU21D;53920;51.094;5.902;2023-04-03T01:30:33;1.99;75.95
67005;HTU21D;53920;51.094;5.902;2023-04-03T01:33:00;1.95;75.57
67005;HTU21D;53920;51.094;5.902;2023-04-03T01:35:27;1.93;75.39
67005;HTU21D;53920;51.094;5.902;2023-04-03T01:37:53;1.94;75.24
67005;HTU21D;53920;51.094;5.902;2023-04-03T01:40:19;1.93;75.50
67005;HTU21D;53920;51.094;5.902;2023-04-03T01:42:49;1.92;75.96
67005;HTU21D;53920;51.094;5.902;2023-04-03T01:45:15;1.93;75.83
67005;HTU21D;53920;51.094;5.902;2023-04-03T01:47:41;1.92;75.86
67005;HTU21D;53920;51.094;5.902;2023-04-03T01:50:08;1.92;75.73
67005;HTU21D;53920;51.094;5.902;2023-04-03T01:52:34;1.87;75.34
67005;HTU21D;53920;51.094;5.902;2023-04-03T01:55:00;1.83;75.26
67005;HTU21D;53920;51.094;5.902;2023-04-03T01:57:26;1.81;75.60
67005;HTU21D;53920;51.094;5.902;2023-04-03T01:59:52;1.81;75.55
67005;HTU21D;53920;51.094;5.902;2023-04-03T02:02:18;1.79;75.38
67005;HTU21D;53920;51.094;5.902;2023-04-03T02:04:46;1.78;75.06
67005;HTU21D;53920;51.094;5.902;2023-04-03T02:07:12;1.75;75.06
67005;HTU21D;53920;51.094;5.902;2023-04-03T02:09:38;1.70;75.33
67005;HTU21D;53920;51.094;5.902;2023-04-03T02:12:07;1.70;75.47
67005;HTU21D;53920;51.094;5.902;2023-04-03T02:14:33;1.69;75.61
67005;HTU21D;53920;51.094;5.902;2023-04-03T02:17:01;1.68;75.92
67005;HTU21D;53920;51.094;5.902;2023-04-03T02:19:31;1.68;76.01
67005;HTU21D;53920;51.094;5.902;2023-04-03T02:21:57;1.68;75.83
67005;HTU21D;53920;51.094;5.902;2023-04-03T02:24:22;1.68;75.60
67005;HTU21D;53920;51.094;5.902;2023-04-03T02:26:49;1.67;75.55
67005;HTU21D;53920;51.094;5.902;2023-04-03T02:29:15;1.66;75.66
67005;HTU21D;53920;51.094;5.902;2023-04-03T02:31:41;1.65;75.93
67005;HTU21D;53920;51.094;5.902;2023-04-03T02:34:07;1.65;76.15
67005;HTU21D;53920;51.094;5.902;2023-04-03T02:36:34;1.66;76.37
67005;HTU21D;53920;51.094;5.902;2023-04-03T02:39:04;1.66;76.48
67005;HTU21D;53920;51.094;5.902;2023-04-03T02:41:30;1.68;76.90
67005;HTU21D;53920;51.094;5.902;2023-04-03T02:44:03;1.77;77.34
67005;HTU21D;53920;51.094;5.902;2023-04-03T02:46:31;1.80;77.60
67005;HTU21D;53920;51.094;5.902;2023-04-03T02:48:57;1.86;77.25
67005;HTU21D;53920;51.094;5.902;2023-04-03T02:51:24;1.85;77.01
67005;HTU21D;53920;51.094;5.902;2023-04-03T02:53:51;1.85;76.48
67005;HTU21D;53920;51.094;5.902;2023-04-03T02:56:22;1.85;76.28
67005;HTU21D;53920;51.094;5.902;2023-04-03T02:58:47;1.83;76.09
67005;HTU21D;53920;51.094;5.902;2023-04-03T03:01:15;1.83;76.24
67005;HTU21D;53920;51.094;5.902;2023-04-03T03:03:42;1.83;76.83
67005;HTU21D;53920;51.094;5.902;2023-04-03T03:06:10;1.85;77.15
67005;HTU21D;53920;51.094;5.902;2023-04-03T03:08:37;1.90;77.39
67005;HTU21D;53920;51.094;5.902;2023-04-03T03:11:05;1.95;77.59
67005;HTU21D;53920;51.094;5.902;2023-04-03T03:13:33;1.99;77.50
67005;HTU21D;53920;51.094;5.902;2023-04-03T03:16:03;2.05;77.53
67005;HTU21D;53920;51.094;5.902;2023-04-03T03:18:29;2.10;77.47
67005;HTU21D;53920;51.094;5.902;2023-04-03T03:20:57;2.14;77.33
67005;HTU21D;53920;51.094;5.902;2023-04-03T03:23:28;2.16;77.23
67005;HTU21D;53920;51.094;5.902;2023-04-03T03:25:56;2.16;77.12
67005;HTU21D;53920;51.094;5.902;2023-04-03T03:28:23;2.19;77.06
67005;HTU21D;53920;51.094;5.902;2023-04-03T03:30:49;2.19;76.98
67005;HTU21D;53920;51.094;5.902;2023-04-03T03:33:18;2.20;76.81
67005;HTU21D;53920;51.094;5.902;2023-04-03T03:35:44;2.17;76.57
67005;HTU21D;53920;51.094;5.902;2023-04-03T03:38:11;2.15;76.23
67005;HTU21D;53920;51.094;5.902;2023-04-03T03:40:37;2.14;76.12
67005;HTU21D;53920;51.094;5.902;2023-04-03T03:43:04;2.15;76.32
67005;HTU21D;53920;51.094;5.902;2023-04-03T03:45:30;2.16;76.45
67005;HTU21D;53920;51.094;5.902;2023-04-03T03:47:56;2.17;76.60
67005;HTU21D;53920;51.094;5.902;2023-04-03T03:50:23;2.17;76.50
67005;HTU21D;53920;51.094;5.902;2023-04-03T03:52:49;2.20;76.37
67005;HTU21D;53920;51.094;5.902;2023-04-03T03:55:16;2.19;76.02
67005;HTU21D;53920;51.094;5.902;2023-04-03T03:57:43;2.16;76.15
67005;HTU21D;53920;51.094;5.902;2023-04-03T04:00:10;2.15;76.32
67005;HTU21D;53920;51.094;5.902;2023-04-03T04:02:44;2.15;76.34
67005;HTU21D;53920;51.094;5.902;2023-04-03T04:05:14;2.15;76.40
67005;HTU21D;53920;51.094;5.902;2023-04-03T04:07:40;2.16;76.35
67005;HTU21D;53920;51.094;5.902;2023-04-03T04:10:07;2.14;76.14
67005;HTU21D;53920;51.094;5.902;2023-04-03T04:12:33;2.12;76.12
67005;HTU21D;53920;51.094;5.902;2023-04-03T04:15:04;2.07;75.98
67005;HTU21D;53920;51.094;5.902;2023-04-03T04:17:30;2.05;76.25
67005;HTU21D;53920;51.094;5.902;2023-04-03T04:19:57;2.03;76.72
67005;HTU21D;53920;51.094;5.902;2023-04-03T04:22:26;2.02;76.89
67005;HTU21D;53920;51.094;5.902;2023-04-03T04:24:53;2.02;77.06
67005;HTU21D;53920;51.094;5.902;2023-04-03T04:27:18;2.05;77.19
67005;HTU21D;53920;51.094;5.902;2023-04-03T04:29:45;2.05;77.11
67005;HTU21D;53920;51.094;5.902;2023-04-03T04:32:11;2.06;77.24
67005;HTU21D;53920;51.094;5.902;2023-04-03T04:34:37;2.06;77.25
67005;HTU21D;53920;51.094;5.902;2023-04-03T04:37:03;2.07;77.28
67005;HTU21D;53920;51.094;5.902;2023-04-03T04:39:30;2.08;77.24
67005;HTU21D;53920;51.094;5.902;2023-04-03T04:41:57;2.09;77.44
67005;HTU21D;53920;51.094;5.902;2023-04-03T04:44:25;2.08;77.22
67005;HTU21D;53920;51.094;5.902;2023-04-03T04:46:51;2.05;77.01
67005;HTU21D;53920;51.094;5.902;2023-04-03T04:49:17;2.03;76.92
67005;HTU21D;53920;51.094;5.902;2023-04-03T04:51:43;1.99;76.92
67005;HTU21D;53920;51.094;5.902;2023-04-03T04:54:10;1.97;76.99
67005;HTU21D;53920;51.094;5.902;2023-04-03T04:56:36;1.97;76.95
67005;HTU21D;53920;51.094;5.902;2023-04-03T04:59:03;1.96;76.88
67005;HTU21D;53920;51.094;5.902;2023-04-03T05:01:30;2.00;76.57
67005;HTU21D;53920;51.094;5.902;2023-04-03T05:04:04;1.94;76.70
67005;HTU21D;53920;51.094;5.902;2023-04-03T05:06:30;1.93;76.91
67005;HTU21D;53920;51.094;5.902;2023-04-03T05:08:59;1.93;77.09
67005;HTU21D;53920;51.094;5.902;2023-04-03T05:11:25;1.92;77.21
67005;HTU21D;53920;51.094;5.902;2023-04-03T05:13:52;1.94;77.18
67005;HTU21D;53920;51.094;5.902;2023-04-03T05:16:19;1.97;77.06
67005;HTU21D;53920;51.094;5.902;2023-04-03T05:18:46;2.01;76.79
67005;HTU21D;53920;51.094;5.902;2023-04-03T05:21:17;2.05;76.50
67005;HTU21D;53920;51.094;5.902;2023-04-03T05:23:49;2.07;76.41
67005;HTU21D;53920;51.094;5.902;2023-04-03T05:26:15;2.11;76.27
67005;HTU21D;53920;51.094;5.902;2023-04-03T05:28:41;2.11;76.19
67005;HTU21D;53920;51.094;5.902;2023-04-03T05:31:08;2.14;76.34
67005;HTU21D;53920;51.094;5.902;2023-04-03T05:33:35;2.17;76.41
67005;HTU21D;53920;51.094;5.902;2023-04-03T05:36:05;2.19;75.99
67005;HTU21D;53920;51.094;5.902;2023-04-03T05:38:35;2.21;76.10
67005;HTU21D;53920;51.094;5.902;2023-04-03T05:41:01;2.24;76.15
67005;HTU21D;53920;51.094;5.902;2023-04-03T05:43:27;2.27;76.05
67005;HTU21D;53920;51.094;5.902;2023-04-03T05:45:54;2.30;75.94
67005;HTU21D;53920;51.094;5.902;2023-04-03T05:48:22;2.34;75.63
67005;HTU21D;53920;51.094;5.902;2023-04-03T05:50:48;2.37;75.76
67005;HTU21D;53920;51.094;5.902;2023-04-03T05:53:27;2.39;75.66
67005;HTU21D;53920;51.094;5.902;2023-04-03T05:55:58;2.44;75.55
67005;HTU21D;53920;51.094;5.902;2023-04-03T05:58:24;2.47;75.57
67005;HTU21D;53920;51.094;5.902;2023-04-03T06:00:52;2.51;75.23
67005;HTU21D;53920;51.094;5.902;2023-04-03T06:03:18;2.57;74.94
67005;HTU21D;53920;51.094;5.902;2023-04-03T06:05:46;2.59;74.82
67005;HTU21D;53920;51.094;5.902;2023-04-03T06:08:12;2.65;74.68
67005;HTU21D;53920;51.094;5.902;2023-04-03T06:10:39;2.71;74.74
67005;HTU21D;53920;51.094;5.902;2023-04-03T06:13:05;2.76;74.46
67005;HTU21D;53920;51.094;5.902;2023-04-03T06:15:32;2.84;74.38
67005;HTU21D;53920;51.094;5.902;2023-04-03T06:17:59;2.91;73.90
67005;HTU21D;53920;51.094;5.902;2023-04-03T06:20:26;2.97;73.67
67005;HTU21D;53920;51.094;5.902;2023-04-03T06:22:53;3.04;73.56
67005;HTU21D;53920;51.094;5.902;2023-04-03T06:25:19;3.14;73.25
67005;HTU21D;53920;51.094;5.902;2023-04-03T06:27:45;3.19;72.80
67005;HTU21D;53920;51.094;5.902;2023-04-03T06:30:11;3.25;72.29
67005;HTU21D;53920;51.094;5.902;2023-04-03T06:32:38;3.32;71.78
67005;HTU21D;53920;51.094;5.902;2023-04-03T06:35:05;3.35;71.80
67005;HTU21D;53920;51.094;5.902;2023-04-03T06:37:31;3.44;71.67
67005;HTU21D;53920;51.094;5.902;2023-04-03T06:39:58;3.47;71.37
67005;HTU21D;53920;51.094;5.902;2023-04-03T06:42:28;3.56;71.24
67005;HTU21D;53920;51.094;5.902;2023-04-03T06:45:00;3.67;71.07
67005;HTU21D;53920;51.094;5.902;2023-04-03T06:47:26;3.78;70.82
67005;HTU21D;53920;51.094;5.902;2023-04-03T06:49:52;3.89;70.46
67005;HTU21D;53920;51.094;5.902;2023-04-03T06:52:18;3.98;70.36
67005;HTU21D;53920;51.094;5.902;2023-04-03T06:54:44;4.05;70.07
67005;HTU21D;53920;51.094;5.902;2023-04-03T06:57:13;4.12;69.79
67005;HTU21D;53920;51.094;5.902;2023-04-03T06:59:39;4.22;69.45
67005;HTU21D;53920;51.094;5.902;2023-04-03T07:02:10;4.33;68.81
67005;HTU21D;53920;51.094;5.902;2023-04-03T07:04:37;4.41;68.75
67005;HTU21D;53920;51.094;5.902;2023-04-03T07:07:03;4.45;68.56
67005;HTU21D;53920;51.094;5.902;2023-04-03T07:09:29;4.52;68.51
67005;HTU21D;53920;51.094;5.902;2023-04-03T07:11:55;4.62;68.34
67005;HTU21D;53920;51.094;5.902;2023-04-03T07:14:21;4.77;68.23
67005;HTU21D;53920;51.094;5.902;2023-04-03T07:16:47;4.86;67.65
67005;HTU21D;53920;51.094;5.902;2023-04-03T07:19:13;4.93;67.17
67005;HTU21D;53920;51.094;5.902;2023-04-03T07:21:41;5.07;67.14
67005;HTU21D;53920;51.094;5.902;2023-04-03T07:24:07;5.33;66.60
67005;HTU21D;53920;51.094;5.902;2023-04-03T07:26:33;6.68;62.40
67005;HTU21D;53920;51.094;5.902;2023-04-03T07:28:59;9.46;53.47
67005;HTU21D;53920;51.094;5.902;2023-04-03T07:31:25;11.82;46.67
67005;HTU21D;53920;51.094;5.902;2023-04-03T07:33:51;13.68;41.55
67005;HTU21D;53920;51.094;5.902;2023-04-03T07:36:20;15.02;38.01
67005;HTU21D;53920;51.094;5.902;2023-04-03T07:38:46;16.48;35.26
67005;HTU21D;53920;51.094;5.902;2023-04-03T07:41:15;17.78;32.67
67005;HTU21D;53920;51.094;5.902;2023-04-03T07:43:42;18.46;31.25
67005;HTU21D;53920;51.094;5.902;2023-04-03T07:46:08;19.02;30.01
67005;HTU21D;53920;51.094;5.902;2023-04-03T07:48:35;19.40;28.90
67005;HTU21D;53920;51.094;5.902;2023-04-03T07:51:02;19.85;28.09
67005;HTU21D;53920;51.094;5.902;2023-04-03T07:53:28;20.46;26.92
67005;HTU21D;53920;51.094;5.902;2023-04-03T07:55:57;20.93;26.15
67005;HTU21D;53920;51.094;5.902;2023-04-03T07:58:23;21.29;25.53
67005;HTU21D;53920;51.094;5.902;2023-04-03T08:00:50;21.63;24.85
67005;HTU21D;53920;51.094;5.902;2023-04-03T08:03:16;21.84;24.26
67005;HTU21D;53920;51.094;5.902;2023-04-03T08:05:46;21.80;24.37
67005;HTU21D;53920;51.094;5.902;2023-04-03T08:08:20;22.25;23.95
67005;HTU21D;53920;51.094;5.902;2023-04-03T08:10:51;22.94;22.76
67005;HTU21D;53920;51.094;5.902;2023-04-03T08:13:18;23.02;22.72
67005;HTU21D;53920;51.094;5.902;2023-04-03T08:15:45;23.25;22.00
67005;HTU21D;53920;51.094;5.902;2023-04-03T08:18:11;23.03;22.21
67005;HTU21D;53920;51.094;5.902;2023-04-03T08:20:39;22.34;22.93
67005;HTU21D;53920;51.094;5.902;2023-04-03T08:23:07;22.24;22.98
67005;HTU21D;53920;51.094;5.902;2023-04-03T08:25:38;22.46;22.49
67005;HTU21D;53920;51.094;5.902;2023-04-03T08:28:05;22.40;22.71
67005;HTU21D;53920;51.094;5.902;2023-04-03T08:30:31;22.65;22.11
67005;HTU21D;53920;51.094;5.902;2023-04-03T08:32:57;22.93;21.65
67005;HTU21D;53920;51.094;5.902;2023-04-03T08:35:23;23.25;21.08
67005;HTU21D;53920;51.094;5.902;2023-04-03T08:37:52;23.30;20.89
67005;HTU21D;53920;51.094;5.902;2023-04-03T08:40:18;23.56;20.04
67005;HTU21D;53920;51.094;5.902;2023-04-03T08:45:45;22.84;19.99
67005;HTU21D;53920;51.094;5.902;2023-04-03T08:48:26;22.49;19.64
67005;HTU21D;53920;51.094;5.902;2023-04-03T08:50:58;22.83;19.05
67005;HTU21D;53920;51.094;5.902;2023-04-03T08:53:32;23.47;18.92
67005;HTU21D;53920;51.094;5.902;2023-04-03T08:56:05;23.88;17.55
67005;HTU21D;53920;51.094;5.902;2023-04-03T08:58:42;24.16;17.55
67005;HTU21D;53920;51.094;5.902;2023-04-03T09:03:47;24.46;17.08
67005;HTU21D;53920;51.094;5.902;2023-04-03T09:06:17;24.55;16.82
67005;HTU21D;53920;51.094;5.902;2023-04-03T09:11:24;24.92;16.22
67005;HTU21D;53920;51.094;5.902;2023-04-03T09:14:04;25.05;15.97
67005;HTU21D;53920;51.094;5.902;2023-04-03T09:19:15;25.52;14.89
67005;HTU21D;53920;51.094;5.902;2023-04-03T09:21:43;25.15;14.47
67005;HTU21D;53920;51.094;5.902;2023-04-03T09:24:13;25.00;13.87
67005;HTU21D;53920;51.094;5.902;2023-04-03T09:26:44;25.08;13.74
67005;HTU21D;53920;51.094;5.902;2023-04-03T09:29:23;24.84;13.30
67005;HTU21D;53920;51.094;5.902;2023-04-03T09:31:56;24.92;13.18
67005;HTU21D;53920;51.094;5.902;2023-04-03T09:34:25;25.49;13.04
67005;HTU21D;53920;51.094;5.902;2023-04-03T09:36:56;26.01;12.53
67005;HTU21D;53920;51.094;5.902;2023-04-03T09:39:26;26.28;11.76
67005;HTU21D;53920;51.094;5.902;2023-04-03T09:42:04;26.35;11.56
67005;HTU21D;53920;51.094;5.902;2023-04-03T09:46:59;26.05;11.14
67005;HTU21D;53920;51.094;5.902;2023-04-03T09:49:42;25.27;10.68
67005;HTU21D;53920;51.094;5.902;2023-04-03T09:52:24;24.73;12.55
67005;HTU21D;53920;51.094;5.902;2023-04-03T09:54:50;25.05;12.06
67005;HTU21D;53920;51.094;5.902;2023-04-03T09:57:17;25.75;11.17
67005;HTU21D;53920;51.094;5.902;2023-04-03T09:59:57;26.27;10.72
67005;HTU21D;53920;51.094;5.902;2023-04-03T10:02:37;26.20;10.48
67005;HTU21D;53920;51.094;5.902;2023-04-03T10:05:36;26.32;9.90
67005;HTU21D;53920;51.094;5.902;2023-04-03T10:10:48;25.60;10.77
67005;HTU21D;53920;51.094;5.902;2023-04-03T10:13:30;25.96;10.62
67005;HTU21D;53920;51.094;5.902;2023-04-03T10:16:03;26.21;10.30
67005;HTU21D;53920;51.094;5.902;2023-04-03T10:18:47;25.88;10.61
67005;HTU21D;53920;51.094;5.902;2023-04-03T10:24:23;26.51;10.32
67005;HTU21D;53920;51.094;5.902;2023-04-03T10:38:30;26.61;10.46
67005;HTU21D;53920;51.094;5.902;2023-04-03T10:43:48;26.57;10.18
67005;HTU21D;53920;51.094;5.902;2023-04-03T10:46:43;26.96;10.09
67005;HTU21D;53920;51.094;5.902;2023-04-03T10:52:20;27.01;9.91
67005;HTU21D;53920;51.094;5.902;2023-04-03T10:57:23;27.43;8.85
67005;HTU21D;53920;51.094;5.902;2023-04-03T10:59:55;26.64;9.63
67005;HTU21D;53920;51.094;5.902;2023-04-03T11:05:02;26.50;9.58
67005;HTU21D;53920;51.094;5.902;2023-04-03T11:07:41;26.21;10.33
67005;HTU21D;53920;51.094;5.902;2023-04-03T11:10:29;25.93;10.93
67005;HTU21D;53920;51.094;5.902;2023-04-03T11:13:06;26.60;10.33
67005;HTU21D;53920;51.094;5.902;2023-04-03T11:15:37;27.16;10.16
67005;HTU21D;53920;51.094;5.902;2023-04-03T11:18:15;27.58;9.65
67005;HTU21D;53920;51.094;5.902;2023-04-03T11:21:34;26.62;9.21
67005;HTU21D;53920;51.094;5.902;2023-04-03T11:23:51;26.32;10.01
67005;HTU21D;53920;51.094;5.902;2023-04-03T11:26:26;26.31;10.07
67005;HTU21D;53920;51.094;5.902;2023-04-03T11:29:03;26.41;9.52
67005;HTU21D;53920;51.094;5.902;2023-04-03T11:31:53;27.06;9.79
67005;HTU21D;53920;51.094;5.902;2023-04-03T11:36:54;26.87;8.91
67005;HTU21D;53920;51.094;5.902;2023-04-03T11:39:35;26.54;10.32
67005;HTU21D;53920;51.094;5.902;2023-04-03T11:42:37;26.86;10.26
67005;HTU21D;53920;51.094;5.902;2023-04-03T11:47:54;24.97;11.46
67005;HTU21D;53920;51.094;5.902;2023-04-03T11:53:00;25.61;11.26
67005;HTU21D;53920;51.094;5.902;2023-04-03T12:05:57;26.17;11.90
67005;HTU21D;53920;51.094;5.902;2023-04-03T12:16:33;24.78;12.91
67005;HTU21D;53920;51.094;5.902;2023-04-03T12:19:30;25.02;12.45
67005;HTU21D;53920;51.094;5.902;2023-04-03T12:24:30;25.65;11.76
67005;HTU21D;53920;51.094;5.902;2023-04-03T12:48:56;25.06;12.50
67005;HTU21D;53920;51.094;5.902;2023-04-03T12:51:42;25.17;13.11
67005;HTU21D;53920;51.094;5.902;2023-04-03T12:54:22;25.89;12.59
67005;HTU21D;53920;51.094;5.902;2023-04-03T12:56:49;26.20;11.83
67005;HTU21D;53920;51.094;5.902;2023-04-03T12:59:25;26.12;11.61
67005;HTU21D;53920;51.094;5.902;2023-04-03T13:02:00;26.01;11.78
67005;HTU21D;53920;51.094;5.902;2023-04-03T13:04:32;26.37;12.58
67005;HTU21D;53920;51.094;5.902;2023-04-03T13:06:58;26.37;11.52
67005;HTU21D;53920;51.094;5.902;2023-04-03T13:09:31;25.83;12.12
67005;HTU21D;53920;51.094;5.902;2023-04-03T13:12:10;25.67;13.05
67005;HTU21D;53920;51.094;5.902;2023-04-03T13:14:37;25.63;12.84
67005;HTU21D;53920;51.094;5.902;2023-04-03T13:17:14;25.59;12.48
67005;HTU21D;53920;51.094;5.902;2023-04-03T13:19:42;25.71;12.07
67005;HTU21D;53920;51.094;5.902;2023-04-03T13:24:55;24.77;12.60
67005;HTU21D;53920;51.094;5.902;2023-04-03T13:27:23;23.46;13.82
67005;HTU21D;53920;51.094;5.902;2023-04-03T13:29:53;23.47;14.94
67005;HTU21D;53920;51.094;5.902;2023-04-03T13:32:23;23.59;15.30
67005;HTU21D;53920;51.094;5.902;2023-04-03T13:34:51;23.75;15.16
67005;HTU21D;53920;51.094;5.902;2023-04-03T13:37:29;24.23;14.63
67005;HTU21D;53920;51.094;5.902;2023-04-03T13:42:37;24.29;14.52
67005;HTU21D;53920;51.094;5.902;2023-04-03T13:45:22;24.30;13.70
67005;HTU21D;53920;51.094;5.902;2023-04-03T13:47:51;24.18;13.84
67005;HTU21D;53920;51.094;5.902;2023-04-03T13:50:22;24.40;13.45
67005;HTU21D;53920;51.094;5.902;2023-04-03T13:52:54;24.41;13.38
67005;HTU21D;53920;51.094;5.902;2023-04-03T13:55:25;24.45;13.99
67005;HTU21D;53920;51.094;5.902;2023-04-03T14:02:55;23.36;15.19
67005;HTU21D;53920;51.094;5.902;2023-04-03T14:05:22;23.82;14.98
67005;HTU21D;53920;51.094;5.902;2023-04-03T14:07:52;24.06;14.55
67005;HTU21D;53920;51.094;5.902;2023-04-03T14:10:18;24.23;13.94
67005;HTU21D;53920;51.094;5.902;2023-04-03T14:12:45;23.80;14.29
67005;HTU21D;53920;51.094;5.902;2023-04-03T14:15:27;23.50;14.62
67005;HTU21D;53920;51.094;5.902;2023-04-03T14:17:54;23.34;15.14
67005;HTU21D;53920;51.094;5.902;2023-04-03T14:20:24;23.26;14.52
67005;HTU21D;53920;51.094;5.902;2023-04-03T14:22:50;22.99;14.42
67005;HTU21D;53920;51.094;5.902;2023-04-03T14:25:17;22.86;15.00
67005;HTU21D;53920;51.094;5.902;2023-04-03T14:27:49;22.75;14.93
67005;HTU21D;53920;51.094;5.902;2023-04-03T14:30:30;22.50;15.26
67005;HTU21D;53920;51.094;5.902;2023-04-03T14:32:56;22.14;15.50
67005;HTU21D;53920;51.094;5.902;2023-04-03T14:35:24;22.01;16.04
67005;HTU21D;53920;51.094;5.902;2023-04-03T14:37:54;21.70;15.83
67005;HTU21D;53920;51.094;5.902;2023-04-03T14:40:25;21.78;16.45
67005;HTU21D;53920;51.094;5.902;2023-04-03T14:42:52;21.85;15.55
67005;HTU21D;53920;51.094;5.902;2023-04-03T14:45:22;21.92;15.79
67005;HTU21D;53920;51.094;5.902;2023-04-03T14:47:53;22.07;16.43
67005;HTU21D;53920;51.094;5.902;2023-04-03T14:50:23;21.77;16.28
67005;HTU21D;53920;51.094;5.902;2023-04-03T14:52:52;21.40;16.52
67005;HTU21D;53920;51.094;5.902;2023-04-03T14:55:21;21.11;16.83
67005;HTU21D;53920;51.094;5.902;2023-04-03T14:57:48;20.96;17.11
67005;HTU21D;53920;51.094;5.902;2023-04-03T15:00:19;20.81;17.23
67005;HTU21D;53920;51.094;5.902;2023-04-03T15:02:47;20.77;17.40
67005;HTU21D;53920;51.094;5.902;2023-04-03T15:05:14;20.34;16.97
67005;HTU21D;53920;51.094;5.902;2023-04-03T15:07:44;19.66;18.56
67005;HTU21D;53920;51.094;5.902;2023-04-03T15:12:45;19.47;18.44
67005;HTU21D;53920;51.094;5.902;2023-04-03T15:15:13;19.07;18.48
67005;HTU21D;53920;51.094;5.902;2023-04-03T15:17:40;18.71;19.24
67005;HTU21D;53920;51.094;5.902;2023-04-03T15:20:14;18.48;19.57
67005;HTU21D;53920;51.094;5.902;2023-04-03T15:22:41;18.10;20.08
67005;HTU21D;53920;51.094;5.902;2023-04-03T15:25:08;17.93;20.44
67005;HTU21D;53920;51.094;5.902;2023-04-03T15:27:35;17.55;19.99
67005;HTU21D;53920;51.094;5.902;2023-04-03T15:30:03;17.03;21.10
67005;HTU21D;53920;51.094;5.902;2023-04-03T15:32:32;16.70;21.99
67005;HTU21D;53920;51.094;5.902;2023-04-03T15:34:59;16.48;22.40
67005;HTU21D;53920;51.094;5.902;2023-04-03T15:37:25;16.35;22.74
67005;HTU21D;53920;51.094;5.902;2023-04-03T15:39:52;16.04;22.63
67005;HTU21D;53920;51.094;5.902;2023-04-03T15:42:18;15.65;23.24
67005;HTU21D;53920;51.094;5.902;2023-04-03T15:44:45;15.33;24.40
67005;HTU21D;53920;51.094;5.902;2023-04-03T15:47:11;15.04;24.78
67005;HTU21D;53920;51.094;5.902;2023-04-03T15:49:38;14.82;25.12
67005;HTU21D;53920;51.094;5.902;2023-04-03T15:52:04;14.56;25.92
67005;HTU21D;53920;51.094;5.902;2023-04-03T15:54:30;14.40;26.68
67005;HTU21D;53920;51.094;5.902;2023-04-03T15:56:57;14.22;27.13
67005;HTU21D;53920;51.094;5.902;2023-04-03T15:59:23;14.03;27.65
67005;HTU21D;53920;51.094;5.902;2023-04-03T16:01:51;13.93;27.85
67005;HTU21D;53920;51.094;5.902;2023-04-03T16:04:19;13.78;27.58
67005;HTU21D;53920;51.094;5.902;2023-04-03T16:06:47;13.52;27.80
67005;HTU21D;53920;51.094;5.902;2023-04-03T16:09:13;13.36;28.49
67005;HTU21D;53920;51.094;5.902;2023-04-03T16:11:39;13.25;29.13
67005;HTU21D;53920;51.094;5.902;2023-04-03T16:14:09;13.10;28.52
67005;HTU21D;53920;51.094;5.902;2023-04-03T16:16:36;12.90;28.81
67005;HTU21D;53920;51.094;5.902;2023-04-03T16:19:04;12.74;29.26
67005;HTU21D;53920;51.094;5.902;2023-04-03T16:21:32;12.65;29.67
67005;HTU21D;53920;51.094;5.902;2023-04-03T16:24:00;12.49;29.41
67005;HTU21D;53920;51.094;5.902;2023-04-03T16:26:32;12.37;30.24
67005;HTU21D;53920;51.094;5.902;2023-04-03T16:28:58;12.33;30.66
67005;HTU21D;53920;51.094;5.902;2023-04-03T16:31:25;12.19;30.43
67005;HTU21D;53920;51.094;5.902;2023-04-03T16:33:52;12.10;31.23
67005;HTU21D;53920;51.094;5.902;2023-04-03T16:36:18;12.02;31.22
67005;HTU21D;53920;51.094;5.902;2023-04-03T16:38:44;11.98;31.46
67005;HTU21D;53920;51.094;5.902;2023-04-03T16:41:10;11.85;31.25
67005;HTU21D;53920;51.094;5.902;2023-04-03T16:43:36;11.70;31.44
67005;HTU21D;53920;51.094;5.902;2023-04-03T16:46:03;11.63;32.18
67005;HTU21D;53920;51.094;5.902;2023-04-03T16:48:30;11.58;32.35
67005;HTU21D;53920;51.094;5.902;2023-04-03T16:50:56;11.47;32.14
67005;HTU21D;53920;51.094;5.902;2023-04-03T16:53:23;11.31;32.67
67005;HTU21D;53920;51.094;5.902;2023-04-03T16:55:50;11.28;32.70
67005;HTU21D;53920;51.094;5.902;2023-04-03T16:58:16;11.19;33.24
67005;HTU21D;53920;51.094;5.902;2023-04-03T17:00:46;11.05;33.28
67005;HTU21D;53920;51.094;5.902;2023-04-03T17:03:14;11.10;33.38
67005;HTU21D;53920;51.094;5.902;2023-04-03T17:05:39;10.89;33.26
67005;HTU21D;53920;51.094;5.902;2023-04-03T17:08:05;10.82;34.08
67005;HTU21D;53920;51.094;5.902;2023-04-03T17:10:31;10.83;34.82
67005;HTU21D;53920;51.094;5.902;2023-04-03T17:12:59;10.71;34.63
67005;HTU21D;53920;51.094;5.902;2023-04-03T17:15:28;10.60;34.66
67005;HTU21D;53920;51.094;5.902;2023-04-03T17:17:54;10.53;35.34
67005;HTU21D;53920;51.094;5.902;2023-04-03T17:20:20;10.46;34.81
67005;HTU21D;53920;51.094;5.902;2023-04-03T17:22:46;10.42;35.16
67005;HTU21D;53920;51.094;5.902;2023-04-03T17:25:12;10.40;34.92
67005;HTU21D;53920;51.094;5.902;2023-04-03T17:27:40;10.34;34.90